createdAt,value
2022-08-30T08:18:52.734Z,60.30
2022-08-30T08:21:23.089Z,60.80
2022-08-30T08:23:51.716Z,58.00
2022-08-30T08:26:20.377Z,58.60
2022-08-30T08:28:49.837Z,55.70
2022-08-30T08:31:19.039Z,55.00
2022-08-30T08:33:47.363Z,51.60
2022-08-30T08:36:16.434Z,50.60
2022-08-30T08:38:46.129Z,50.50
2022-08-30T08:41:32.368Z,49.30
2022-08-30T08:44:00.585Z,48.40
2022-08-30T08:46:35.924Z,50.50
2022-08-30T08:49:07.368Z,50.50
2022-08-30T08:51:57.457Z,52.20
2022-08-30T08:54:36.167Z,50.60
2022-08-30T08:57:04.799Z,50.70
2022-08-30T08:59:33.435Z,51.50
2022-08-30T09:02:04.100Z,51.40
2022-08-30T09:04:36.692Z,51.40
2022-08-30T09:07:09.287Z,49.50
2022-08-30T09:09:41.697Z,48.80
2022-08-30T09:12:12.579Z,49.90
2022-08-30T09:14:46.519Z,49.60
2022-08-30T09:17:16.681Z,49.70
2022-08-30T09:19:46.181Z,48.80
2022-08-30T09:22:28.039Z,49.20
2022-08-30T09:25:03.235Z,50.90
2022-08-30T09:27:36.015Z,50.70
2022-08-30T09:32:59.437Z,50.60
2022-08-30T09:35:35.788Z,53.40
2022-08-30T09:38:07.277Z,52.80
2022-08-30T09:40:40.929Z,52.70
2022-08-30T09:43:12.961Z,52.10
2022-08-30T09:45:44.213Z,52.40
2022-08-30T09:48:31.153Z,50.40
2022-08-30T09:51:22.978Z,51.00
2022-08-30T09:57:04.874Z,53.10
2022-08-30T09:59:48.661Z,52.70
2022-08-30T10:02:37.791Z,53.50
2022-08-30T10:05:12.482Z,54.50
2022-08-30T10:07:47.598Z,53.50
2022-08-30T10:10:20.261Z,53.00
2022-08-30T10:13:01.240Z,53.70
2022-08-30T10:15:33.667Z,54.00
2022-08-30T10:18:06.845Z,54.50
2022-08-30T10:20:41.820Z,56.00
2022-08-30T10:23:14.462Z,56.80
2022-08-30T10:25:50.165Z,55.40
2022-08-30T10:28:27.669Z,56.60
2022-08-30T10:31:03.017Z,57.80
2022-08-30T10:33:37.579Z,58.20
2022-08-30T10:36:10.727Z,60.50
2022-08-30T10:38:41.101Z,62.90
2022-08-30T10:41:17.516Z,64.50
2022-08-30T10:43:55.602Z,67.40
2022-08-30T10:46:31.902Z,68.00
2022-08-30T10:49:03.623Z,68.00
2022-08-30T10:51:37.850Z,69.40
2022-08-30T10:54:18.502Z,68.40
2022-08-30T10:56:51.809Z,69.40
2022-08-30T10:59:22.372Z,68.80
2022-08-30T11:02:12.648Z,68.80
2022-08-30T11:05:09.397Z,68.80
2022-08-30T11:07:45.008Z,70.00
2022-08-30T11:10:42.551Z,69.50
2022-08-30T11:13:22.403Z,70.00
2022-08-30T11:15:58.736Z,70.10
2022-08-30T11:18:31.555Z,69.90
2022-08-30T11:21:19.359Z,69.70
2022-08-30T11:24:11.126Z,69.20
2022-08-30T11:26:59.420Z,67.90
2022-08-30T11:29:38.089Z,67.90
2022-08-30T11:33:02.088Z,67.20
2022-08-30T11:35:47.288Z,67.60
2022-08-30T11:38:22.958Z,67.90
2022-08-30T11:40:53.641Z,67.50
2022-08-30T11:43:55.692Z,67.70
2022-08-30T11:46:39.486Z,68.90
2022-08-30T11:49:46.403Z,68.50
2022-08-30T11:52:33.290Z,70.20
2022-08-30T11:55:36.139Z,71.00
2022-08-30T11:58:16.262Z,71.20
2022-08-30T12:00:52.962Z,70.80
2022-08-30T12:03:33.220Z,71.60
2022-08-30T12:06:04.848Z,73.10
2022-08-30T12:08:59.309Z,71.50
2022-08-30T12:12:02.347Z,70.70
2022-08-30T12:14:44.782Z,71.30
2022-08-30T12:17:48.370Z,71.40
2022-08-30T12:20:25.174Z,70.50
2022-08-30T12:22:54.988Z,71.20
2022-08-30T12:25:30.382Z,72.10
2022-08-30T12:28:16.144Z,72.90
2022-08-30T12:30:46.487Z,73.70
2022-08-30T12:33:29.599Z,74.40
2022-08-30T12:35:59.795Z,73.40
2022-08-30T12:38:29.899Z,75.70
2022-08-30T12:41:02.563Z,73.50
2022-08-30T12:43:40.247Z,74.00
2022-08-30T12:46:15.734Z,74.70
2022-08-30T12:48:45.414Z,74.30
2022-08-30T12:51:29.790Z,75.00
2022-08-30T12:54:10.530Z,74.20
2022-08-30T12:57:19.030Z,75.30
2022-08-30T12:59:59.824Z,74.60
2022-08-30T13:02:43.981Z,74.20
2022-08-30T13:05:50.090Z,73.00
2022-08-30T13:08:25.405Z,72.80
2022-08-30T13:11:05.784Z,73.40
2022-08-30T13:13:44.481Z,74.70
2022-08-30T13:16:29.521Z,74.70
2022-08-30T13:19:20.859Z,73.30
2022-08-30T13:21:52.790Z,74.60
2022-08-30T13:24:25.211Z,73.70
2022-08-30T13:26:55.498Z,73.40
2022-08-30T13:29:28.181Z,74.00
2022-08-30T13:31:57.144Z,74.60
2022-08-30T13:34:25.416Z,75.60
2022-08-30T13:36:56.858Z,76.70
2022-08-30T13:39:26.044Z,78.00
2022-08-30T13:41:55.307Z,77.70
2022-08-30T13:44:45.116Z,79.00
2022-08-30T13:47:33.199Z,79.50
2022-08-30T13:50:03.219Z,78.50
2022-08-30T13:52:31.463Z,76.60
2022-08-30T13:54:59.801Z,77.10
2022-08-30T14:00:22.233Z,76.80
2022-08-30T14:02:54.738Z,76.20
2022-08-30T14:11:02.578Z,75.80
2022-08-30T14:13:30.971Z,76.40
2022-08-30T14:18:50.812Z,75.10
2022-08-30T14:21:21.314Z,76.40
2022-08-30T14:23:53.201Z,76.60
2022-08-30T14:26:23.454Z,77.30
2022-08-30T14:28:54.732Z,75.80
2022-08-30T14:31:24.809Z,75.80
2022-08-30T14:33:53.017Z,75.30
2022-08-30T14:36:21.203Z,75.50
2022-08-30T14:38:51.588Z,75.60
2022-08-30T14:41:19.773Z,77.40
2022-08-30T14:43:48.048Z,77.50
2022-08-30T14:46:16.371Z,77.30
2022-08-30T14:48:46.922Z,77.90
2022-08-30T14:51:17.009Z,77.90
2022-08-30T14:53:46.723Z,77.90
2022-08-30T14:56:16.678Z,78.50
2022-08-30T14:58:49.609Z,79.60
2022-08-30T15:01:18.884Z,80.00
2022-08-30T15:03:48.530Z,80.30
2022-08-30T15:06:16.883Z,79.80
2022-08-30T15:08:47.747Z,79.20
2022-08-30T15:11:19.793Z,79.50
2022-08-30T15:13:48.563Z,78.80
2022-08-30T15:16:18.868Z,80.50
2022-08-30T15:18:49.271Z,80.20
2022-08-30T15:21:25.005Z,79.40
2022-08-30T15:23:54.206Z,78.70
2022-08-30T15:26:22.692Z,79.10
2022-08-30T15:28:52.590Z,78.50
2022-08-30T15:31:22.146Z,79.10
2022-08-30T15:33:52.683Z,78.70
2022-08-30T15:36:21.163Z,78.40
2022-08-30T15:38:49.357Z,79.60
2022-08-30T15:41:17.491Z,80.10
2022-08-30T15:43:46.329Z,80.70
2022-08-30T15:46:22.537Z,82.40
2022-08-30T15:48:56.851Z,84.70
2022-08-30T15:51:26.572Z,85.50
2022-08-30T15:53:56.137Z,86.00
2022-08-30T15:56:26.009Z,87.40
2022-08-30T15:58:54.218Z,87.80
2022-08-30T16:01:30.772Z,89.30
2022-08-30T16:04:01.935Z,90.30
2022-08-30T16:06:33.024Z,90.90
2022-08-30T16:09:01.870Z,91.40
2022-08-30T16:11:30.237Z,92.20
2022-08-30T16:13:59.266Z,92.20
2022-08-30T16:16:27.599Z,93.10
2022-08-30T16:18:56.095Z,93.60
2022-08-30T16:21:27.745Z,94.70
2022-08-30T16:23:57.677Z,96.10
2022-08-30T16:26:28.951Z,97.80
2022-08-30T16:28:57.527Z,99.70
2022-08-30T16:31:26.753Z,99.90
2022-08-30T16:33:55.504Z,99.90
2022-08-30T16:36:32.546Z,99.90
2022-08-30T16:39:01.614Z,99.90
2022-08-30T16:41:31.497Z,99.90
2022-08-30T16:44:00.870Z,99.90
2022-08-30T16:46:29.331Z,99.90
2022-08-30T16:48:59.539Z,99.90
2022-08-30T16:51:30.389Z,99.90
2022-08-30T16:54:02.404Z,99.90
2022-08-30T16:56:33.312Z,99.90
2022-08-30T16:59:03.383Z,99.90
2022-08-30T17:01:37.888Z,99.90
2022-08-30T17:10:00.068Z,99.90
2022-08-30T17:12:28.576Z,99.90
2022-08-30T17:14:57.003Z,99.90
2022-08-30T17:17:26.049Z,99.90
2022-08-30T17:19:54.366Z,99.90
2022-08-30T17:22:22.824Z,99.90
2022-08-30T17:24:52.344Z,99.90
2022-08-30T17:27:22.578Z,99.90
2022-08-30T17:29:51.895Z,99.90
2022-08-30T17:32:20.409Z,99.90
2022-08-30T17:34:48.647Z,99.90
2022-08-30T17:37:18.612Z,99.90
2022-08-30T17:39:46.900Z,99.90
2022-08-30T17:42:15.222Z,99.90
2022-08-30T17:44:45.478Z,99.90
2022-08-30T17:47:14.118Z,99.90
2022-08-30T17:49:43.639Z,99.90
2022-08-30T17:52:12.831Z,99.90
2022-08-30T17:54:41.643Z,99.90
2022-08-30T17:57:11.596Z,99.90
2022-08-30T17:59:41.275Z,99.90
2022-08-30T18:02:11.369Z,99.90
2022-08-30T18:04:42.056Z,99.90
2022-08-30T18:07:11.991Z,99.90
2022-08-30T18:09:40.939Z,99.90
2022-08-30T18:12:09.551Z,99.90
2022-08-30T18:14:38.574Z,99.90
2022-08-30T18:17:08.628Z,99.90
2022-08-30T18:19:46.487Z,99.90
2022-08-30T18:22:15.897Z,99.90
2022-08-30T18:24:44.236Z,99.90
2022-08-30T18:27:13.387Z,99.90
2022-08-30T18:29:41.754Z,99.90
2022-08-30T18:32:11.259Z,99.90
2022-08-30T18:34:42.997Z,99.90
2022-08-30T18:37:12.322Z,99.90
2022-08-30T18:39:41.203Z,99.90
2022-08-30T18:42:10.172Z,99.90
2022-08-30T18:44:40.319Z,99.90
2022-08-30T18:47:12.350Z,99.90
2022-08-30T18:49:42.029Z,99.90
2022-08-30T18:52:12.077Z,99.90
2022-08-30T18:54:42.026Z,99.90
2022-08-30T18:57:11.537Z,99.90
2022-08-30T18:59:41.830Z,99.90
2022-08-30T19:02:14.255Z,99.90
2022-08-30T19:04:45.410Z,99.90
2022-08-30T19:07:16.084Z,99.90
2022-08-30T19:09:45.321Z,99.90
2022-08-30T19:12:14.327Z,99.90
2022-08-30T19:14:43.206Z,99.90
2022-08-30T19:17:12.716Z,99.90
2022-08-30T19:19:48.905Z,99.90
2022-08-30T19:22:22.583Z,99.90
2022-08-30T19:24:54.893Z,99.90
2022-08-30T19:27:38.258Z,99.90
2022-08-30T19:30:10.124Z,99.90
2022-08-30T19:32:38.389Z,99.90
2022-08-30T19:35:08.309Z,99.90
2022-08-30T19:37:38.406Z,99.90
2022-08-30T19:40:09.915Z,99.90
2022-08-30T19:42:46.659Z,99.90
2022-08-30T19:45:19.159Z,99.90
2022-08-30T19:47:50.588Z,99.90
2022-08-30T19:50:20.085Z,99.90
2022-08-30T19:52:54.048Z,99.90
2022-08-30T19:55:28.510Z,99.90
2022-08-30T19:57:58.825Z,99.90
2022-08-30T20:00:30.604Z,99.90
2022-08-30T20:03:01.468Z,99.90
2022-08-30T20:05:30.261Z,99.90
2022-08-30T20:07:59.943Z,99.90
2022-08-30T20:10:28.591Z,99.90
2022-08-30T20:12:58.219Z,99.90
2022-08-30T20:15:43.904Z,99.90
2022-08-30T20:18:29.020Z,99.90
2022-08-30T20:21:05.530Z,99.90
2022-08-30T20:24:03.366Z,99.90
2022-08-30T20:26:40.139Z,99.90
2022-08-30T20:29:14.330Z,99.90
2022-08-30T20:31:51.748Z,99.90
2022-08-30T20:34:27.467Z,99.90
2022-08-30T20:36:57.640Z,99.90
2022-08-30T20:39:27.349Z,99.90
2022-08-30T20:41:56.360Z,99.90
2022-08-30T20:44:25.076Z,99.90
2022-08-30T20:46:54.096Z,99.90
2022-08-30T20:49:31.023Z,99.90
2022-08-30T20:51:59.257Z,99.90
2022-08-30T20:54:28.791Z,99.90
2022-08-30T20:56:57.027Z,99.90
2022-08-30T20:59:25.234Z,99.90
2022-08-30T21:01:53.845Z,99.90
2022-08-30T21:04:23.474Z,99.90
2022-08-30T21:06:51.981Z,99.90
2022-08-30T21:09:20.127Z,99.90
2022-08-30T21:11:50.140Z,99.90
2022-08-30T21:14:20.270Z,99.90
2022-08-30T21:16:49.015Z,99.90
2022-08-30T21:19:17.342Z,99.90
2022-08-30T21:21:45.720Z,99.90
2022-08-30T21:24:14.127Z,99.90
2022-08-30T21:26:43.478Z,99.90
2022-08-30T21:29:14.333Z,99.90
2022-08-30T21:31:43.256Z,99.90
2022-08-30T21:34:17.158Z,99.90
2022-08-30T21:36:48.016Z,99.90
2022-08-30T21:39:19.614Z,99.90
2022-08-30T21:41:48.862Z,99.90
2022-08-30T21:44:20.822Z,99.90
2022-08-30T21:46:50.162Z,99.90
2022-08-30T21:49:20.607Z,99.90
2022-08-30T21:52:15.695Z,99.90
2022-08-30T21:54:44.003Z,99.90
2022-08-30T21:57:12.251Z,99.90
2022-08-30T21:59:41.826Z,99.90
2022-08-30T22:02:10.090Z,99.90
2022-08-30T22:04:38.647Z,99.90
2022-08-30T22:07:08.419Z,99.90
2022-08-30T22:09:37.261Z,99.90
2022-08-30T22:12:06.904Z,99.90
2022-08-30T22:14:36.987Z,99.90
2022-08-30T22:17:07.191Z,99.90
2022-08-30T22:19:35.971Z,99.90
2022-08-30T22:22:04.274Z,99.90
2022-08-30T22:24:33.073Z,99.90
2022-08-30T22:27:02.677Z,99.90
2022-08-30T22:29:31.323Z,99.90
2022-08-30T22:32:00.007Z,99.90
2022-08-30T22:34:32.096Z,99.90
2022-08-30T22:37:00.647Z,99.90
2022-08-30T22:39:29.006Z,99.90
2022-08-30T22:41:57.425Z,99.90
2022-08-30T22:44:25.823Z,99.90
2022-08-30T22:46:53.998Z,99.90
2022-08-30T22:49:22.253Z,99.90
2022-08-30T22:51:54.193Z,99.90
2022-08-30T22:54:23.193Z,99.90
2022-08-30T22:56:51.671Z,99.90
2022-08-30T22:59:19.875Z,99.90
2022-08-30T23:01:48.261Z,99.90
2022-08-30T23:04:16.842Z,99.90
2022-08-30T23:06:50.032Z,99.90
2022-08-30T23:09:20.117Z,99.90
2022-08-30T23:11:48.409Z,99.90
2022-08-30T23:14:16.599Z,99.90
2022-08-30T23:16:45.386Z,99.90
2022-08-30T23:19:14.202Z,99.90
2022-08-30T23:21:42.876Z,99.90
2022-08-30T23:24:28.967Z,99.90
2022-08-30T23:27:16.084Z,99.90
2022-08-30T23:30:02.174Z,99.90
2022-08-30T23:32:47.956Z,99.90
2022-08-30T23:35:33.966Z,99.90
2022-08-30T23:38:23.676Z,99.90
2022-08-30T23:41:08.973Z,99.90
2022-08-30T23:43:56.192Z,99.90
2022-08-30T23:46:42.188Z,99.90
2022-08-30T23:49:27.924Z,99.90
2022-08-30T23:52:13.881Z,99.90
2022-08-30T23:54:59.340Z,99.90
2022-08-30T23:57:45.759Z,99.90
